sensor_id;sensor_type;location;lat;lon;timestamp;temperature;humidity
1461;DHT22;724;49.910;12.530;2023-04-15T00:22:55;3.60;99.90
1461;DHT22;724;49.910;12.530;2023-04-15T00:25:24;3.60;99.90
1461;DHT22;724;49.910;12.530;2023-04-15T00:30:33;3.60;99.90
1461;DHT22;724;49.910;12.530;2023-04-15T00:33:01;3.60;99.90
1461;DHT22;724;49.910;12.530;2023-04-15T00:35:40;3.60;99.90
1461;DHT22;724;49.910;12.530;2023-04-15T00:38:16;3.60;99.90
1461;DHT22;724;49.910;12.530;2023-04-15T00:40:46;3.60;99.90
1461;DHT22;724;49.910;12.530;2023-04-15T00:43:26;3.60;99.90
1461;DHT22;724;49.910;12.530;2023-04-15T00:46:00;3.50;99.90
1461;DHT22;724;49.910;12.530;2023-04-15T00:48:37;3.40;99.90
1461;DHT22;724;49.910;12.530;2023-04-15T00:51:31;3.50;99.90
1461;DHT22;724;49.910;12.530;2023-04-15T00:54:14;3.50;99.90
1461;DHT22;724;49.910;12.530;2023-04-15T00:56:48;3.50;99.90
1461;DHT22;724;49.910;12.530;2023-04-15T00:59:29;3.50;99.90
1461;DHT22;724;49.910;12.530;2023-04-15T01:02:00;3.50;99.90
1461;DHT22;724;49.910;12.530;2023-04-15T01:04:30;3.40;99.90
1461;DHT22;724;49.910;12.530;2023-04-15T01:07:13;3.50;99.90
1461;DHT22;724;49.910;12.530;2023-04-15T01:10:34;3.50;99.90
1461;DHT22;724;49.910;12.530;2023-04-15T01:13:09;3.50;99.90
1461;DHT22;724;49.910;12.530;2023-04-15T01:15:53;3.40;99.90
1461;DHT22;724;49.910;12.530;2023-04-15T01:18:25;3.40;99.90
1461;DHT22;724;49.910;12.530;2023-04-15T01:20:56;3.40;99.90
1461;DHT22;724;49.910;12.530;2023-04-15T01:23:28;3.40;99.90
1461;DHT22;724;49.910;12.530;2023-04-15T01:26:13;3.40;99.90
1461;DHT22;724;49.910;12.530;2023-04-15T01:28:44;3.40;99.90
1461;DHT22;724;49.910;12.530;2023-04-15T01:31:15;3.40;99.90
1461;DHT22;724;49.910;12.530;2023-04-15T01:33:45;3.40;99.90
1461;DHT22;724;49.910;12.530;2023-04-15T01:36:16;3.40;99.90
1461;DHT22;724;49.910;12.530;2023-04-15T01:38:45;3.40;99.90
1461;DHT22;724;49.910;12.530;2023-04-15T01:44:24;3.30;99.90
1461;DHT22;724;49.910;12.530;2023-04-15T01:46:56;3.30;99.90
1461;DHT22;724;49.910;12.530;2023-04-15T01:49:26;3.30;99.90
1461;DHT22;724;49.910;12.530;2023-04-15T01:51:55;3.30;99.90
1461;DHT22;724;49.910;12.530;2023-04-15T01:54:26;3.40;99.90
1461;DHT22;724;49.910;12.530;2023-04-15T01:57:01;3.40;99.90
1461;DHT22;724;49.910;12.530;2023-04-15T01:59:35;3.40;99.90
1461;DHT22;724;49.910;12.530;2023-04-15T02:02:06;3.40;99.90
1461;DHT22;724;49.910;12.530;2023-04-15T02:04:36;3.40;99.90
1461;DHT22;724;49.910;12.530;2023-04-15T02:07:08;3.40;99.90
1461;DHT22;724;49.910;12.530;2023-04-15T02:09:42;3.40;99.90
1461;DHT22;724;49.910;12.530;2023-04-15T02:12:19;3.40;99.90
1461;DHT22;724;49.910;12.530;2023-04-15T02:15:01;3.40;99.90
1461;DHT22;724;49.910;12.530;2023-04-15T02:17:33;3.30;99.90
1461;DHT22;724;49.910;12.530;2023-04-15T02:20:18;3.40;99.90
1461;DHT22;724;49.910;12.530;2023-04-15T02:22:53;3.30;99.90
1461;DHT22;724;49.910;12.530;2023-04-15T02:25:25;3.30;99.90
1461;DHT22;724;49.910;12.530;2023-04-15T02:27:58;3.30;99.90
1461;DHT22;724;49.910;12.530;2023-04-15T02:30:33;3.30;99.90
1461;DHT22;724;49.910;12.530;2023-04-15T02:33:06;3.40;99.90
1461;DHT22;724;49.910;12.530;2023-04-15T02:35:37;3.30;99.90
1461;DHT22;724;49.910;12.530;2023-04-15T02:38:09;3.40;99.90
1461;DHT22;724;49.910;12.530;2023-04-15T02:40:44;3.30;99.90
1461;DHT22;724;49.910;12.530;2023-04-15T02:43:20;3.30;99.90
1461;DHT22;724;49.910;12.530;2023-04-15T02:46:10;3.30;99.90
1461;DHT22;724;49.910;12.530;2023-04-15T02:48:43;3.30;99.90
1461;DHT22;724;49.910;12.530;2023-04-15T02:51:15;3.30;99.90
1461;DHT22;724;49.910;12.530;2023-04-15T02:53:59;3.30;99.90
1461;DHT22;724;49.910;12.530;2023-04-15T02:56:30;3.30;99.90
1461;DHT22;724;49.910;12.530;2023-04-15T02:59:04;3.30;99.90
1461;DHT22;724;49.910;12.530;2023-04-15T03:01:42;3.20;99.90
1461;DHT22;724;49.910;12.530;2023-04-15T03:04:14;3.20;99.90
1461;DHT22;724;49.910;12.530;2023-04-15T03:06:46;3.30;99.90
1461;DHT22;724;49.910;12.530;2023-04-15T03:09:20;3.30;99.90
1461;DHT22;724;49.910;12.530;2023-04-15T03:12:08;3.20;99.90
1461;DHT22;724;49.910;12.530;2023-04-15T03:14:43;3.20;99.90
1461;DHT22;724;49.910;12.530;2023-04-15T03:17:39;3.30;99.90
1461;DHT22;724;49.910;12.530;2023-04-15T03:20:17;3.20;99.90
1461;DHT22;724;49.910;12.530;2023-04-15T03:22:56;3.20;99.90
1461;DHT22;724;49.910;12.530;2023-04-15T03:28:10;3.20;99.90
1461;DHT22;724;49.910;12.530;2023-04-15T03:30:39;3.20;99.90
1461;DHT22;724;49.910;12.530;2023-04-15T03:33:11;3.20;99.90
1461;DHT22;724;49.910;12.530;2023-04-15T03:35:41;3.20;99.90
1461;DHT22;724;49.910;12.530;2023-04-15T03:38:11;3.20;99.90
1461;DHT22;724;49.910;12.530;2023-04-15T03:40:41;3.20;99.90
1461;DHT22;724;49.910;12.530;2023-04-15T03:43:13;3.20;99.90
1461;DHT22;724;49.910;12.530;2023-04-15T03:45:42;3.20;99.90
1461;DHT22;724;49.910;12.530;2023-04-15T03:48:22;3.30;99.90
1461;DHT22;724;49.910;12.530;2023-04-15T03:50:53;3.20;99.90
1461;DHT22;724;49.910;12.530;2023-04-15T03:53:31;3.20;99.90
1461;DHT22;724;49.910;12.530;2023-04-15T03:56:03;3.20;99.90
1461;DHT22;724;49.910;12.530;2023-04-15T03:58:34;3.30;99.90
1461;DHT22;724;49.910;12.530;2023-04-15T04:01:05;3.20;99.90
1461;DHT22;724;49.910;12.530;2023-04-15T04:03:46;3.20;99.90
1461;DHT22;724;49.910;12.530;2023-04-15T04:06:14;3.20;99.90
1461;DHT22;724;49.910;12.530;2023-04-15T04:08:53;3.20;99.90
1461;DHT22;724;49.910;12.530;2023-04-15T04:11:21;3.20;99.90
1461;DHT22;724;49.910;12.530;2023-04-15T04:13:49;3.20;99.90
1461;DHT22;724;49.910;12.530;2023-04-15T04:16:18;3.20;99.90
1461;DHT22;724;49.910;12.530;2023-04-15T04:18:52;3.10;99.90
1461;DHT22;724;49.910;12.530;2023-04-15T04:21:23;3.20;99.90
1461;DHT22;724;49.910;12.530;2023-04-15T04:23:51;3.20;99.90
1461;DHT22;724;49.910;12.530;2023-04-15T04:26:19;3.10;99.90
1461;DHT22;724;49.910;12.530;2023-04-15T04:28:49;3.20;99.90
1461;DHT22;724;49.910;12.530;2023-04-15T04:31:17;3.20;99.90
1461;DHT22;724;49.910;12.530;2023-04-15T04:33:45;3.20;99.90
1461;DHT22;724;49.910;12.530;2023-04-15T04:36:31;3.20;99.90
1461;DHT22;724;49.910;12.530;2023-04-15T04:39:00;3.20;99.90
1461;DHT22;724;49.910;12.530;2023-04-15T04:41:28;3.30;99.90
1461;DHT22;724;49.910;12.530;2023-04-15T04:43:58;3.30;99.90
1461;DHT22;724;49.910;12.530;2023-04-15T04:46:26;3.30;99.90
1461;DHT22;724;49.910;12.530;2023-04-15T04:48:54;3.20;99.90
1461;DHT22;724;49.910;12.530;2023-04-15T04:51:22;3.20;99.90
1461;DHT22;724;49.910;12.530;2023-04-15T04:53:52;3.10;99.90
1461;DHT22;724;49.910;12.530;2023-04-15T04:56:19;3.10;99.90
1461;DHT22;724;49.910;12.530;2023-04-15T04:58:48;3.20;99.90
1461;DHT22;724;49.910;12.530;2023-04-15T05:01:18;3.20;99.90
1461;DHT22;724;49.910;12.530;2023-04-15T05:03:46;3.10;99.90
1461;DHT22;724;49.910;12.530;2023-04-15T05:06:18;3.10;99.90
1461;DHT22;724;49.910;12.530;2023-04-15T05:08:47;3.10;99.90
1461;DHT22;724;49.910;12.530;2023-04-15T05:11:17;3.00;99.90
1461;DHT22;724;49.910;12.530;2023-04-15T05:13:46;3.00;99.90
1461;DHT22;724;49.910;12.530;2023-04-15T05:16:13;3.00;99.90
1461;DHT22;724;49.910;12.530;2023-04-15T05:18:40;2.90;99.90
1461;DHT22;724;49.910;12.530;2023-04-15T05:21:09;2.90;99.90
1461;DHT22;724;49.910;12.530;2023-04-15T05:23:37;3.00;99.90
1461;DHT22;724;49.910;12.530;2023-04-15T05:26:06;3.00;99.90
1461;DHT22;724;49.910;12.530;2023-04-15T05:28:38;3.00;99.90
1461;DHT22;724;49.910;12.530;2023-04-15T05:31:07;3.00;99.90
1461;DHT22;724;49.910;12.530;2023-04-15T05:33:36;2.90;99.90
1461;DHT22;724;49.910;12.530;2023-04-15T05:36:03;3.00;99.90
1461;DHT22;724;49.910;12.530;2023-04-15T05:38:31;3.00;99.90
1461;DHT22;724;49.910;12.530;2023-04-15T05:40:59;3.00;99.90
1461;DHT22;724;49.910;12.530;2023-04-15T05:43:29;3.00;99.90
1461;DHT22;724;49.910;12.530;2023-04-15T05:46:00;2.90;99.90
1461;DHT22;724;49.910;12.530;2023-04-15T05:48:38;3.00;99.90
1461;DHT22;724;49.910;12.530;2023-04-15T05:51:07;3.00;99.90
1461;DHT22;724;49.910;12.530;2023-04-15T05:53:38;3.00;99.90
1461;DHT22;724;49.910;12.530;2023-04-15T05:56:07;3.10;99.90
1461;DHT22;724;49.910;12.530;2023-04-15T05:58:35;3.10;99.90
1461;DHT22;724;49.910;12.530;2023-04-15T06:01:07;3.10;99.90
1461;DHT22;724;49.910;12.530;2023-04-15T06:03:35;3.00;99.90
1461;DHT22;724;49.910;12.530;2023-04-15T06:06:02;3.20;99.90
1461;DHT22;724;49.910;12.530;2023-04-15T06:08:31;3.10;99.90
1461;DHT22;724;49.910;12.530;2023-04-15T06:11:05;3.20;99.90
1461;DHT22;724;49.910;12.530;2023-04-15T06:13:33;3.20;99.90
1461;DHT22;724;49.910;12.530;2023-04-15T06:16:01;3.20;99.90
1461;DHT22;724;49.910;12.530;2023-04-15T06:18:32;3.20;99.90
1461;DHT22;724;49.910;12.530;2023-04-15T06:21:03;3.30;99.90
1461;DHT22;724;49.910;12.530;2023-04-15T06:23:34;3.30;99.90
1461;DHT22;724;49.910;12.530;2023-04-15T06:26:18;3.20;99.90
1461;DHT22;724;49.910;12.530;2023-04-15T06:29:20;3.30;99.90
1461;DHT22;724;49.910;12.530;2023-04-15T06:31:47;3.30;99.90
1461;DHT22;724;49.910;12.530;2023-04-15T06:34:15;3.30;99.90
1461;DHT22;724;49.910;12.530;2023-04-15T06:36:42;3.40;99.90
1461;DHT22;724;49.910;12.530;2023-04-15T06:39:09;3.40;99.90
1461;DHT22;724;49.910;12.530;2023-04-15T06:41:36;3.50;99.90
1461;DHT22;724;49.910;12.530;2023-04-15T06:44:02;3.40;99.90
1461;DHT22;724;49.910;12.530;2023-04-15T06:46:29;3.50;99.90
1461;DHT22;724;49.910;12.530;2023-04-15T06:48:56;3.50;99.90
1461;DHT22;724;49.910;12.530;2023-04-15T06:51:24;3.50;99.90
1461;DHT22;724;49.910;12.530;2023-04-15T06:53:51;3.50;99.90
1461;DHT22;724;49.910;12.530;2023-04-15T06:56:18;3.70;99.90
1461;DHT22;724;49.910;12.530;2023-04-15T06:58:45;3.70;99.90
1461;DHT22;724;49.910;12.530;2023-04-15T07:01:12;3.70;99.90
1461;DHT22;724;49.910;12.530;2023-04-15T07:03:39;3.60;99.90
1461;DHT22;724;49.910;12.530;2023-04-15T07:06:06;3.60;99.90
1461;DHT22;724;49.910;12.530;2023-04-15T07:08:36;3.70;99.90
1461;DHT22;724;49.910;12.530;2023-04-15T07:11:05;3.70;99.90
1461;DHT22;724;49.910;12.530;2023-04-15T07:13:33;3.80;99.90
1461;DHT22;724;49.910;12.530;2023-04-15T07:16:02;3.90;99.90
1461;DHT22;724;49.910;12.530;2023-04-15T07:18:29;3.80;99.90
1461;DHT22;724;49.910;12.530;2023-04-15T07:20:56;3.90;99.90
1461;DHT22;724;49.910;12.530;2023-04-15T07:23:26;4.10;99.90
1461;DHT22;724;49.910;12.530;2023-04-15T07:25:55;3.90;99.90
1461;DHT22;724;49.910;12.530;2023-04-15T07:28:23;4.00;99.90
1461;DHT22;724;49.910;12.530;2023-04-15T07:30:52;4.00;99.90
1461;DHT22;724;49.910;12.530;2023-04-15T07:33:21;4.00;99.90
1461;DHT22;724;49.910;12.530;2023-04-15T07:35:49;4.00;99.90
1461;DHT22;724;49.910;12.530;2023-04-15T07:38:17;4.00;99.90
1461;DHT22;724;49.910;12.530;2023-04-15T07:40:51;4.00;99.90
1461;DHT22;724;49.910;12.530;2023-04-15T07:43:36;3.90;99.90
1461;DHT22;724;49.910;12.530;2023-04-15T07:48:57;4.10;99.90
1461;DHT22;724;49.910;12.530;2023-04-15T07:51:24;4.10;99.90
1461;DHT22;724;49.910;12.530;2023-04-15T07:53:51;4.20;99.90
1461;DHT22;724;49.910;12.530;2023-04-15T07:56:19;4.10;99.90
1461;DHT22;724;49.910;12.530;2023-04-15T07:58:49;4.30;99.90
1461;DHT22;724;49.910;12.530;2023-04-15T08:01:16;4.40;99.90
1461;DHT22;724;49.910;12.530;2023-04-15T08:03:43;4.40;99.90
1461;DHT22;724;49.910;12.530;2023-04-15T08:06:09;4.50;94.90
1461;DHT22;724;49.910;12.530;2023-04-15T08:08:36;4.40;6.30
1461;DHT22;724;49.910;12.530;2023-04-15T08:11:03;4.20;5.40
1461;DHT22;724;49.910;12.530;2023-04-15T08:13:32;4.30;99.90
1461;DHT22;724;49.910;12.530;2023-04-15T09:09:53;5.00;99.90
1461;DHT22;724;49.910;12.530;2023-04-15T09:12:27;5.10;99.90
1461;DHT22;724;49.910;12.530;2023-04-15T09:15:08;5.50;99.90
1461;DHT22;724;49.910;12.530;2023-04-15T09:17:53;5.60;99.90
1461;DHT22;724;49.910;12.530;2023-04-15T09:20:24;5.40;1.00
1461;DHT22;724;49.910;12.530;2023-04-15T09:38:55;5.90;99.90
1461;DHT22;724;49.910;12.530;2023-04-15T10:00:00;6.00;99.90
1461;DHT22;724;49.910;12.530;2023-04-15T10:02:45;6.20;99.90
1461;DHT22;724;49.910;12.530;2023-04-15T10:10:41;6.50;1.00
1461;DHT22;724;49.910;12.530;2023-04-15T10:15:49;6.40;99.90
1461;DHT22;724;49.910;12.530;2023-04-15T10:18:19;6.30;99.90
1461;DHT22;724;49.910;12.530;2023-04-15T10:20:47;6.30;98.00
1461;DHT22;724;49.910;12.530;2023-04-15T10:23:17;6.20;99.90
1461;DHT22;724;49.910;12.530;2023-04-15T10:25:45;6.40;99.90
1461;DHT22;724;49.910;12.530;2023-04-15T10:28:15;6.40;1.00
1461;DHT22;724;49.910;12.530;2023-04-15T10:30:45;6.30;1.00
1461;DHT22;724;49.910;12.530;2023-04-15T10:33:14;6.40;99.90
1461;DHT22;724;49.910;12.530;2023-04-15T10:35:43;6.20;99.90
1461;DHT22;724;49.910;12.530;2023-04-15T10:38:40;6.30;99.90
1461;DHT22;724;49.910;12.530;2023-04-15T10:41:22;6.10;99.90
1461;DHT22;724;49.910;12.530;2023-04-15T10:43:51;6.20;1.00
1461;DHT22;724;49.910;12.530;2023-04-15T10:46:21;6.10;1.00
1461;DHT22;724;49.910;12.530;2023-04-15T10:48:49;6.20;1.00
1461;DHT22;724;49.910;12.530;2023-04-15T10:51:16;6.20;99.90
1461;DHT22;724;49.910;12.530;2023-04-15T10:53:43;5.90;99.90
1461;DHT22;724;49.910;12.530;2023-04-15T10:56:10;6.10;1.00
1461;DHT22;724;49.910;12.530;2023-04-15T10:58:41;6.20;99.90
1461;DHT22;724;49.910;12.530;2023-04-15T11:01:08;6.20;99.90
1461;DHT22;724;49.910;12.530;2023-04-15T11:03:39;6.40;99.90
1461;DHT22;724;49.910;12.530;2023-04-15T11:06:08;6.50;99.90
1461;DHT22;724;49.910;12.530;2023-04-15T11:08:55;6.60;83.60
1461;DHT22;724;49.910;12.530;2023-04-15T11:14:29;6.30;77.70
1461;DHT22;724;49.910;12.530;2023-04-15T11:16:56;6.30;99.90
1461;DHT22;724;49.910;12.530;2023-04-15T11:19:59;6.20;99.90
1461;DHT22;724;49.910;12.530;2023-04-15T11:22:29;6.50;99.90
1461;DHT22;724;49.910;12.530;2023-04-15T11:24:56;6.50;99.90
1461;DHT22;724;49.910;12.530;2023-04-15T11:27:23;6.50;99.90
1461;DHT22;724;49.910;12.530;2023-04-15T11:29:50;6.70;87.60
1461;DHT22;724;49.910;12.530;2023-04-15T11:32:17;6.70;1.00
1461;DHT22;724;49.910;12.530;2023-04-15T11:34:47;6.60;1.00
1461;DHT22;724;49.910;12.530;2023-04-15T11:37:15;6.50;1.00
1461;DHT22;724;49.910;12.530;2023-04-15T11:39:44;6.60;1.00
1461;DHT22;724;49.910;12.530;2023-04-15T11:42:16;6.60;1.00
1461;DHT22;724;49.910;12.530;2023-04-15T11:44:42;6.50;1.00
1461;DHT22;724;49.910;12.530;2023-04-15T11:47:21;6.60;1.00
1461;DHT22;724;49.910;12.530;2023-04-15T11:49:48;6.60;1.00
1461;DHT22;724;49.910;12.530;2023-04-15T11:52:16;6.70;1.00
1461;DHT22;724;49.910;12.530;2023-04-15T11:54:43;6.70;1.00
1461;DHT22;724;49.910;12.530;2023-04-15T11:57:10;6.80;1.00
1461;DHT22;724;49.910;12.530;2023-04-15T11:59:41;6.60;1.00
1461;DHT22;724;49.910;12.530;2023-04-15T12:02:11;6.90;1.00
1461;DHT22;724;49.910;12.530;2023-04-15T12:04:38;7.00;1.00
1461;DHT22;724;49.910;12.530;2023-04-15T12:07:05;6.90;1.00
1461;DHT22;724;49.910;12.530;2023-04-15T12:09:37;7.00;99.90
1461;DHT22;724;49.910;12.530;2023-04-15T12:12:05;7.10;99.90
1461;DHT22;724;49.910;12.530;2023-04-15T12:14:32;7.00;99.90
1461;DHT22;724;49.910;12.530;2023-04-15T12:17:00;7.10;99.90
1461;DHT22;724;49.910;12.530;2023-04-15T12:19:29;6.90;1.00
1461;DHT22;724;49.910;12.530;2023-04-15T12:21:58;6.90;1.00
1461;DHT22;724;49.910;12.530;2023-04-15T12:24:25;7.00;1.00
1461;DHT22;724;49.910;12.530;2023-04-15T12:26:55;6.80;1.00
1461;DHT22;724;49.910;12.530;2023-04-15T12:29:25;6.90;1.00
1461;DHT22;724;49.910;12.530;2023-04-15T12:31:53;6.90;1.00
1461;DHT22;724;49.910;12.530;2023-04-15T12:34:28;6.90;1.00
1461;DHT22;724;49.910;12.530;2023-04-15T12:36:55;7.00;1.00
1461;DHT22;724;49.910;12.530;2023-04-15T12:39:24;7.00;1.00
1461;DHT22;724;49.910;12.530;2023-04-15T12:41:51;7.10;1.00
1461;DHT22;724;49.910;12.530;2023-04-15T12:44:21;7.00;1.00
1461;DHT22;724;49.910;12.530;2023-04-15T12:46:48;7.20;1.00
1461;DHT22;724;49.910;12.530;2023-04-15T12:49:15;7.10;1.00
1461;DHT22;724;49.910;12.530;2023-04-15T12:51:45;7.00;1.00
1461;DHT22;724;49.910;12.530;2023-04-15T12:54:12;7.10;1.00
1461;DHT22;724;49.910;12.530;2023-04-15T12:56:39;6.70;1.00
1461;DHT22;724;49.910;12.530;2023-04-15T12:59:05;6.60;99.90
1461;DHT22;724;49.910;12.530;2023-04-15T13:01:33;6.70;99.90
1461;DHT22;724;49.910;12.530;2023-04-15T13:04:00;6.70;99.90
1461;DHT22;724;49.910;12.530;2023-04-15T13:06:27;6.70;99.90
1461;DHT22;724;49.910;12.530;2023-04-15T13:08:55;6.80;99.90
1461;DHT22;724;49.910;12.530;2023-04-15T13:11:22;6.70;99.90
1461;DHT22;724;49.910;12.530;2023-04-15T13:13:48;6.70;99.90
1461;DHT22;724;49.910;12.530;2023-04-15T13:16:16;6.60;99.90
1461;DHT22;724;49.910;12.530;2023-04-15T13:18:44;6.60;1.00
1461;DHT22;724;49.910;12.530;2023-04-15T13:21:11;6.80;1.00
1461;DHT22;724;49.910;12.530;2023-04-15T13:23:39;6.90;99.90
1461;DHT22;724;49.910;12.530;2023-04-15T13:26:06;6.50;99.90
1461;DHT22;724;49.910;12.530;2023-04-15T13:28:33;6.50;1.00
1461;DHT22;724;49.910;12.530;2023-04-15T13:31:00;6.40;1.00
1461;DHT22;724;49.910;12.530;2023-04-15T13:33:28;6.60;1.00
1461;DHT22;724;49.910;12.530;2023-04-15T13:35:56;6.60;94.10
1461;DHT22;724;49.910;12.530;2023-04-15T13:38:24;6.70;99.90
1461;DHT22;724;49.910;12.530;2023-04-15T13:40:51;6.70;1.00
1461;DHT22;724;49.910;12.530;2023-04-15T13:43:18;6.80;1.00
1461;DHT22;724;49.910;12.530;2023-04-15T13:45:46;6.80;1.00
1461;DHT22;724;49.910;12.530;2023-04-15T13:48:12;6.70;1.00
1461;DHT22;724;49.910;12.530;2023-04-15T13:50:39;6.70;1.00
1461;DHT22;724;49.910;12.530;2023-04-15T13:53:11;6.60;1.00
1461;DHT22;724;49.910;12.530;2023-04-15T13:55:38;6.40;1.00
1461;DHT22;724;49.910;12.530;2023-04-15T13:58:07;6.30;7.70
1461;DHT22;724;49.910;12.530;2023-04-15T14:00:33;6.50;99.90
1461;DHT22;724;49.910;12.530;2023-04-15T14:03:00;6.40;99.90
1461;DHT22;724;49.910;12.530;2023-04-15T14:05:27;6.30;99.90
1461;DHT22;724;49.910;12.530;2023-04-15T14:07:54;6.30;1.00
1461;DHT22;724;49.910;12.530;2023-04-15T14:10:22;6.30;1.00
1461;DHT22;724;49.910;12.530;2023-04-15T14:12:49;6.40;1.00
1461;DHT22;724;49.910;12.530;2023-04-15T14:15:16;6.40;1.00
1461;DHT22;724;49.910;12.530;2023-04-15T14:17:43;6.40;1.00
1461;DHT22;724;49.910;12.530;2023-04-15T14:20:10;6.30;1.00
1461;DHT22;724;49.910;12.530;2023-04-15T14:22:37;6.20;1.00
1461;DHT22;724;49.910;12.530;2023-04-15T14:25:04;6.30;1.00
1461;DHT22;724;49.910;12.530;2023-04-15T14:27:34;6.10;1.00
1461;DHT22;724;49.910;12.530;2023-04-15T14:30:02;6.30;61.20
1461;DHT22;724;49.910;12.530;2023-04-15T14:32:29;6.40;99.90
1461;DHT22;724;49.910;12.530;2023-04-15T14:34:56;6.40;99.90
1461;DHT22;724;49.910;12.530;2023-04-15T14:37:22;6.50;59.70
1461;DHT22;724;49.910;12.530;2023-04-15T14:39:49;6.50;1.00
1461;DHT22;724;49.910;12.530;2023-04-15T14:42:16;6.50;1.00
1461;DHT22;724;49.910;12.530;2023-04-15T14:44:44;6.60;1.00
1461;DHT22;724;49.910;12.530;2023-04-15T14:47:11;6.60;1.00
1461;DHT22;724;49.910;12.530;2023-04-15T14:49:38;6.60;1.00
1461;DHT22;724;49.910;12.530;2023-04-15T14:52:05;6.50;1.00
1461;DHT22;724;49.910;12.530;2023-04-15T14:54:32;6.50;1.00
1461;DHT22;724;49.910;12.530;2023-04-15T14:56:59;6.70;1.00
1461;DHT22;724;49.910;12.530;2023-04-15T14:59:26;6.70;1.00
1461;DHT22;724;49.910;12.530;2023-04-15T15:01:54;6.70;1.00
1461;DHT22;724;49.910;12.530;2023-04-15T15:04:21;6.70;1.00
1461;DHT22;724;49.910;12.530;2023-04-15T15:06:48;6.70;1.00
1461;DHT22;724;49.910;12.530;2023-04-15T15:09:15;6.80;1.00
1461;DHT22;724;49.910;12.530;2023-04-15T15:11:44;6.80;1.00
1461;DHT22;724;49.910;12.530;2023-04-15T15:14:11;6.60;1.00
1461;DHT22;724;49.910;12.530;2023-04-15T15:16:37;6.60;1.00
1461;DHT22;724;49.910;12.530;2023-04-15T15:19:06;6.60;1.00
1461;DHT22;724;49.910;12.530;2023-04-15T15:21:33;6.50;1.00
1461;DHT22;724;49.910;12.530;2023-04-15T15:24:00;6.50;1.00
1461;DHT22;724;49.910;12.530;2023-04-15T15:26:27;6.40;1.00
1461;DHT22;724;49.910;12.530;2023-04-15T15:28:54;6.40;1.00
1461;DHT22;724;49.910;12.530;2023-04-15T15:31:21;6.30;1.00
1461;DHT22;724;49.910;12.530;2023-04-15T15:33:47;6.10;1.00
1461;DHT22;724;49.910;12.530;2023-04-15T15:36:17;6.20;36.70
1461;DHT22;724;49.910;12.530;2023-04-15T15:38:44;6.20;99.60
1461;DHT22;724;49.910;12.530;2023-04-15T15:41:11;6.30;99.90
1461;DHT22;724;49.910;12.530;2023-04-15T15:43:37;6.00;99.90
1461;DHT22;724;49.910;12.530;2023-04-15T15:46:04;5.70;99.90
1461;DHT22;724;49.910;12.530;2023-04-15T15:48:31;5.80;99.90
1461;DHT22;724;49.910;12.530;2023-04-15T15:51:00;5.80;99.90
1461;DHT22;724;49.910;12.530;2023-04-15T15:53:30;5.90;99.90
1461;DHT22;724;49.910;12.530;2023-04-15T15:55:57;6.00;99.90
1461;DHT22;724;49.910;12.530;2023-04-15T15:58:24;5.80;99.90
1461;DHT22;724;49.910;12.530;2023-04-15T16:00:50;5.90;99.90
1461;DHT22;724;49.910;12.530;2023-04-15T16:03:19;5.60;99.90
1461;DHT22;724;49.910;12.530;2023-04-15T16:05:45;5.60;99.90
1461;DHT22;724;49.910;12.530;2023-04-15T16:08:12;5.60;99.90
1461;DHT22;724;49.910;12.530;2023-04-15T16:10:40;5.40;99.90
1461;DHT22;724;49.910;12.530;2023-04-15T16:13:08;5.40;99.90
1461;DHT22;724;49.910;12.530;2023-04-15T16:15:35;5.30;99.90
1461;DHT22;724;49.910;12.530;2023-04-15T16:18:02;5.30;99.90
1461;DHT22;724;49.910;12.530;2023-04-15T16:20:28;5.40;99.90
1461;DHT22;724;49.910;12.530;2023-04-15T16:22:57;5.50;99.90
1461;DHT22;724;49.910;12.530;2023-04-15T16:25:24;5.40;99.90
1461;DHT22;724;49.910;12.530;2023-04-15T16:27:52;5.30;99.90
1461;DHT22;724;49.910;12.530;2023-04-15T16:30:19;5.40;99.90
1461;DHT22;724;49.910;12.530;2023-04-15T16:32:46;5.40;99.90
1461;DHT22;724;49.910;12.530;2023-04-15T16:35:13;5.40;99.90
1461;DHT22;724;49.910;12.530;2023-04-15T16:37:41;5.30;99.90
1461;DHT22;724;49.910;12.530;2023-04-15T16:40:09;5.30;99.90
1461;DHT22;724;49.910;12.530;2023-04-15T16:42:36;5.20;99.90
1461;DHT22;724;49.910;12.530;2023-04-15T16:45:07;5.30;99.90
1461;DHT22;724;49.910;12.530;2023-04-15T16:47:34;5.20;99.90
1461;DHT22;724;49.910;12.530;2023-04-15T16:50:00;5.30;99.90
1461;DHT22;724;49.910;12.530;2023-04-15T16:52:27;5.40;99.90
1461;DHT22;724;49.910;12.530;2023-04-15T16:54:54;5.30;99.90
1461;DHT22;724;49.910;12.530;2023-04-15T16:57:21;5.20;99.90
1461;DHT22;724;49.910;12.530;2023-04-15T16:59:48;5.20;99.90
1461;DHT22;724;49.910;12.530;2023-04-15T17:02:16;5.10;99.90
1461;DHT22;724;49.910;12.530;2023-04-15T17:04:43;5.00;99.90
1461;DHT22;724;49.910;12.530;2023-04-15T17:07:10;5.00;99.90
1461;DHT22;724;49.910;12.530;2023-04-15T17:09:37;5.00;99.90
1461;DHT22;724;49.910;12.530;2023-04-15T17:12:05;5.00;99.90
1461;DHT22;724;49.910;12.530;2023-04-15T17:14:32;5.00;99.90
1461;DHT22;724;49.910;12.530;2023-04-15T17:17:00;5.00;99.90
1461;DHT22;724;49.910;12.530;2023-04-15T17:19:28;5.00;99.90
1461;DHT22;724;49.910;12.530;2023-04-15T17:21:54;5.10;99.90
1461;DHT22;724;49.910;12.530;2023-04-15T17:24:22;5.20;99.90
1461;DHT22;724;49.910;12.530;2023-04-15T17:26:49;5.20;99.90
1461;DHT22;724;49.910;12.530;2023-04-15T17:29:16;5.20;99.90
1461;DHT22;724;49.910;12.530;2023-04-15T17:31:43;5.10;99.90
1461;DHT22;724;49.910;12.530;2023-04-15T17:34:11;5.00;99.90
1461;DHT22;724;49.910;12.530;2023-04-15T17:36:39;5.00;99.90
1461;DHT22;724;49.910;12.530;2023-04-15T17:39:06;5.10;99.90
1461;DHT22;724;49.910;12.530;2023-04-15T17:41:33;5.20;99.90
1461;DHT22;724;49.910;12.530;2023-04-15T17:44:00;5.20;99.90
1461;DHT22;724;49.910;12.530;2023-04-15T17:46:27;5.20;99.90
1461;DHT22;724;49.910;12.530;2023-04-15T17:48:54;5.10;99.90
1461;DHT22;724;49.910;12.530;2023-04-15T17:51:22;5.20;99.90
1461;DHT22;724;49.910;12.530;2023-04-15T17:53:50;5.00;99.90
1461;DHT22;724;49.910;12.530;2023-04-15T17:56:17;4.80;99.90
1461;DHT22;724;49.910;12.530;2023-04-15T17:58:44;4.90;99.90
1461;DHT22;724;49.910;12.530;2023-04-15T18:01:11;4.90;99.90
1461;DHT22;724;49.910;12.530;2023-04-15T18:03:38;4.80;99.90
1461;DHT22;724;49.910;12.530;2023-04-15T18:06:05;4.80;99.90
1461;DHT22;724;49.910;12.530;2023-04-15T18:08:32;4.90;99.90
1461;DHT22;724;49.910;12.530;2023-04-15T18:11:00;5.00;99.90
1461;DHT22;724;49.910;12.530;2023-04-15T18:13:29;4.90;99.90
1461;DHT22;724;49.910;12.530;2023-04-15T18:15:56;5.00;99.90
1461;DHT22;724;49.910;12.530;2023-04-15T18:18:23;5.00;99.90
1461;DHT22;724;49.910;12.530;2023-04-15T18:20:49;5.00;99.90
1461;DHT22;724;49.910;12.530;2023-04-15T18:23:16;4.90;99.90
1461;DHT22;724;49.910;12.530;2023-04-15T18:25:43;4.80;99.90
1461;DHT22;724;49.910;12.530;2023-04-15T18:28:11;4.70;99.90
1461;DHT22;724;49.910;12.530;2023-04-15T18:30:38;4.80;99.90
1461;DHT22;724;49.910;12.530;2023-04-15T18:33:05;4.90;99.90
1461;DHT22;724;49.910;12.530;2023-04-15T18:35:33;4.80;99.90
1461;DHT22;724;49.910;12.530;2023-04-15T18:38:01;4.70;99.90
1461;DHT22;724;49.910;12.530;2023-04-15T18:40:28;4.70;99.90
1461;DHT22;724;49.910;12.530;2023-04-15T18:42:54;4.70;99.90
1461;DHT22;724;49.910;12.530;2023-04-15T18:45:23;4.70;99.90
1461;DHT22;724;49.910;12.530;2023-04-15T18:47:50;4.70;99.90
1461;DHT22;724;49.910;12.530;2023-04-15T18:50:17;4.70;99.90
1461;DHT22;724;49.910;12.530;2023-04-15T18:52:44;4.80;99.90